createdAt,value
2016-09-15T00:00:22.275Z,0
2016-09-15T00:01:22.265Z,0
2016-09-15T00:02:22.238Z,0
2016-09-15T00:03:22.225Z,0
2016-09-15T00:04:22.203Z,0
2016-09-15T00:05:22.194Z,0
2016-09-15T00:06:22.169Z,0
2016-09-15T00:07:22.153Z,0
2016-09-15T00:08:22.131Z,0
2016-09-15T00:09:22.113Z,0
2016-09-15T00:10:22.090Z,0
2016-09-15T00:11:22.084Z,0
2016-09-15T00:12:22.061Z,0
2016-09-15T00:13:22.039Z,0
2016-09-15T00:14:22.017Z,0
2016-09-15T00:15:22.003Z,0
2016-09-15T00:16:21.980Z,0
2016-09-15T00:17:21.964Z,0
2016-09-15T00:18:21.942Z,0
2016-09-15T00:19:21.925Z,0
2016-09-15T00:20:21.899Z,0
2016-09-15T00:21:21.886Z,0
2016-09-15T00:22:21.868Z,0
2016-09-15T00:23:21.863Z,0
2016-09-15T00:24:21.830Z,0
2016-09-15T00:25:21.814Z,0
2016-09-15T00:26:21.790Z,0
2016-09-15T00:27:21.772Z,0
2016-09-15T00:28:21.765Z,0
2016-09-15T00:29:21.741Z,0
2016-09-15T00:30:21.718Z,0
2016-09-15T00:31:21.698Z,0
2016-09-15T00:32:21.676Z,0
2016-09-15T00:33:21.663Z,0
2016-09-15T00:34:21.638Z,0
2016-09-15T00:35:21.679Z,0
2016-09-15T00:36:21.598Z,0
2016-09-15T00:37:21.591Z,0
2016-09-15T00:38:21.566Z,0
2016-09-15T00:39:21.550Z,0
2016-09-15T00:40:21.537Z,0
2016-09-15T00:41:21.518Z,0
2016-09-15T00:42:21.486Z,0
2016-09-15T00:43:21.474Z,0
2016-09-15T00:44:21.451Z,0
2016-09-15T00:45:21.444Z,0
2016-09-15T00:46:21.408Z,0
2016-09-15T00:47:21.396Z,0
2016-09-15T00:48:21.378Z,0
2016-09-15T00:49:21.363Z,0
2016-09-15T00:50:21.335Z,0
2016-09-15T00:51:21.321Z,0
2016-09-15T00:52:21.296Z,0
2016-09-15T00:53:21.283Z,0
2016-09-15T00:54:21.259Z,0
2016-09-15T00:55:21.245Z,0
2016-09-15T00:56:21.220Z,0
2016-09-15T00:57:21.503Z,0
2016-09-15T00:58:21.191Z,0
2016-09-15T00:59:21.168Z,0
2016-09-15T01:00:21.149Z,0
2016-09-15T01:01:21.147Z,0
2016-09-15T01:02:21.105Z,0
2016-09-15T01:03:21.088Z,0
2016-09-15T01:04:21.066Z,0
2016-09-15T01:05:21.054Z,0
2016-09-15T01:06:21.028Z,0
2016-09-15T01:07:21.014Z,0
2016-09-15T01:08:20.992Z,0
2016-09-15T01:09:20.976Z,0
2016-09-15T01:10:20.953Z,0
2016-09-15T01:11:20.938Z,0
2016-09-15T01:12:20.915Z,0
2016-09-15T01:13:20.899Z,0
2016-09-15T01:14:20.874Z,0
2016-09-15T01:15:20.864Z,0
2016-09-15T01:16:20.841Z,0
2016-09-15T01:17:20.820Z,0
2016-09-15T01:18:20.799Z,0
2016-09-15T01:19:20.784Z,0
2016-09-15T01:20:20.757Z,0
2016-09-15T01:21:20.746Z,0
2016-09-15T01:22:20.723Z,0
2016-09-15T01:23:20.711Z,0
2016-09-15T01:24:20.690Z,0
2016-09-15T01:25:20.679Z,0
2016-09-15T01:26:20.646Z,0
2016-09-15T01:27:20.629Z,0
2016-09-15T01:28:20.605Z,0
2016-09-15T01:29:20.597Z,0
2016-09-15T01:30:20.571Z,0
2016-09-15T01:31:20.551Z,0
2016-09-15T01:32:20.529Z,0
2016-09-15T01:33:20.522Z,0
2016-09-15T01:34:20.490Z,0
2016-09-15T01:35:20.488Z,0
2016-09-15T01:36:20.450Z,0
2016-09-15T01:37:20.436Z,0
2016-09-15T01:38:20.414Z,0
2016-09-15T01:39:20.393Z,0
2016-09-15T01:40:20.377Z,0
2016-09-15T01:41:20.355Z,0
2016-09-15T01:42:20.337Z,0
2016-09-15T01:43:20.330Z,0
2016-09-15T01:44:20.293Z,0
2016-09-15T01:45:20.284Z,0
2016-09-15T01:46:20.259Z,0
2016-09-15T01:47:20.254Z,0
2016-09-15T01:48:20.221Z,0
2016-09-15T01:49:20.201Z,0
2016-09-15T01:50:20.180Z,0
2016-09-15T01:51:20.165Z,0
2016-09-15T01:52:20.140Z,0
2016-09-15T01:53:20.127Z,0
2016-09-15T01:54:20.101Z,0
2016-09-15T01:55:20.086Z,0
2016-09-15T01:56:20.064Z,0
2016-09-15T01:57:20.051Z,0
2016-09-15T01:58:20.024Z,0
2016-09-15T01:59:20.005Z,0
2016-09-15T02:00:19.981Z,0
2016-09-15T02:01:19.961Z,0
2016-09-15T02:02:19.944Z,0
2016-09-15T02:03:19.930Z,0
2016-09-15T02:04:19.904Z,0
2016-09-15T02:05:19.893Z,0
2016-09-15T02:06:19.868Z,0
2016-09-15T02:07:19.848Z,0
2016-09-15T02:08:19.828Z,0
2016-09-15T02:09:20.117Z,0
2016-09-15T02:10:19.791Z,0
2016-09-15T02:11:19.773Z,0
2016-09-15T02:12:19.747Z,0
2016-09-15T02:13:19.737Z,0
2016-09-15T02:14:19.709Z,0
2016-09-15T02:15:19.692Z,0
2016-09-15T02:16:19.673Z,0
2016-09-15T02:17:19.657Z,0
2016-09-15T02:18:19.629Z,0
2016-09-15T02:19:19.618Z,0
2016-09-15T02:20:19.591Z,0
2016-09-15T02:21:19.587Z,0
2016-09-15T02:22:19.555Z,0
2016-09-15T02:23:19.540Z,0
2016-09-15T02:24:19.518Z,0
2016-09-15T02:25:19.509Z,0
2016-09-15T02:26:19.474Z,0
2016-09-15T02:27:19.459Z,0
2016-09-15T02:28:19.439Z,0
2016-09-15T02:29:19.420Z,0
2016-09-15T02:30:19.397Z,0
2016-09-15T02:31:19.389Z,0
2016-09-15T02:32:19.356Z,0
2016-09-15T02:33:19.343Z,0
2016-09-15T02:34:19.319Z,0
2016-09-15T02:35:19.299Z,0
2016-09-15T02:36:19.278Z,0
2016-09-15T02:37:19.272Z,0
2016-09-15T02:38:19.237Z,0
2016-09-15T02:39:19.223Z,0
2016-09-15T02:40:19.196Z,0
2016-09-15T02:41:19.182Z,0
2016-09-15T02:42:19.161Z,0
2016-09-15T02:43:19.144Z,0
2016-09-15T02:44:19.122Z,0
2016-09-15T02:45:19.106Z,0
2016-09-15T02:46:19.079Z,0
2016-09-15T02:47:19.062Z,0
2016-09-15T02:48:19.040Z,0
2016-09-15T02:49:19.025Z,0
2016-09-15T02:50:19.003Z,0
2016-09-15T02:51:18.982Z,0
2016-09-15T02:52:18.960Z,0
2016-09-15T02:53:18.948Z,0
2016-09-15T02:54:18.920Z,0
2016-09-15T02:55:18.910Z,0
2016-09-15T02:56:18.881Z,0
2016-09-15T02:57:18.864Z,0
2016-09-15T02:58:18.838Z,0
2016-09-15T02:59:18.823Z,0
2016-09-15T03:00:18.808Z,0
2016-09-15T03:01:18.782Z,0
2016-09-15T03:02:18.759Z,0
2016-09-15T03:03:18.744Z,0
2016-09-15T03:04:18.729Z,0
2016-09-15T03:05:18.707Z,0
2016-09-15T03:06:18.684Z,0
2016-09-15T03:07:18.663Z,0
2016-09-15T03:08:18.642Z,0
2016-09-15T03:09:18.627Z,0
2016-09-15T03:10:18.608Z,0
2016-09-15T03:11:18.591Z,0
2016-09-15T03:12:18.564Z,0
2016-09-15T03:13:18.843Z,0
2016-09-15T03:14:18.550Z,0
2016-09-15T03:15:18.520Z,0
2016-09-15T03:16:18.493Z,0
2016-09-15T03:17:18.468Z,0
2016-09-15T03:18:18.442Z,0
2016-09-15T03:19:18.424Z,0
2016-09-15T03:20:18.407Z,0
2016-09-15T03:21:18.385Z,0
2016-09-15T03:22:18.375Z,0
2016-09-15T03:23:18.347Z,0
2016-09-15T03:24:18.327Z,0
2016-09-15T03:25:18.307Z,0
2016-09-15T03:26:18.282Z,0
2016-09-15T03:27:18.265Z,0
2016-09-15T03:28:18.250Z,0
2016-09-15T03:29:18.223Z,0
2016-09-15T03:30:18.212Z,0
2016-09-15T03:31:18.479Z,0
2016-09-15T03:32:18.167Z,0
2016-09-15T03:33:18.139Z,0
2016-09-15T03:34:18.125Z,0
2016-09-15T03:35:18.102Z,0
2016-09-15T03:36:18.087Z,0
2016-09-15T03:37:18.360Z,0
2016-09-15T03:38:18.044Z,0
2016-09-15T03:39:18.326Z,0
2016-09-15T03:40:18.002Z,0
2016-09-15T03:41:17.981Z,0
2016-09-15T03:42:17.961Z,0
2016-09-15T03:43:17.946Z,0
2016-09-15T03:44:18.216Z,0
2016-09-15T03:45:17.903Z,0
2016-09-15T03:46:17.881Z,0
2016-09-15T03:47:17.880Z,0
2016-09-15T03:48:17.837Z,0
2016-09-15T03:49:17.824Z,0
2016-09-15T03:50:17.804Z,0
2016-09-15T03:51:17.793Z,0
2016-09-15T03:52:17.765Z,0
2016-09-15T03:53:17.749Z,0
2016-09-15T03:54:17.721Z,0
2016-09-15T03:55:17.700Z,0
2016-09-15T03:56:17.674Z,0
2016-09-15T03:57:17.656Z,0
2016-09-15T03:58:17.634Z,0
2016-09-15T03:59:17.615Z,0
2016-09-15T04:00:17.596Z,0
2016-09-15T04:01:17.575Z,0
2016-09-15T04:02:17.561Z,0
2016-09-15T04:03:17.532Z,0
2016-09-15T04:04:17.517Z,0
2016-09-15T04:05:17.492Z,0
2016-09-15T04:06:17.474Z,0
2016-09-15T04:07:17.454Z,0
2016-09-15T04:08:17.447Z,0
2016-09-15T04:09:17.425Z,0
2016-09-15T04:10:17.397Z,0
2016-09-15T04:11:17.371Z,0
2016-09-15T04:12:17.357Z,0
2016-09-15T04:13:17.629Z,0
2016-09-15T04:14:17.617Z,0
2016-09-15T04:15:17.295Z,0
2016-09-15T04:16:17.272Z,0
2016-09-15T04:17:17.258Z,0
2016-09-15T04:18:17.232Z,0
2016-09-15T04:19:17.210Z,0
2016-09-15T04:20:17.201Z,0
2016-09-15T04:21:17.172Z,0
2016-09-15T04:22:17.156Z,0
2016-09-15T04:23:17.137Z,0
2016-09-15T04:24:17.116Z,0
2016-09-15T04:25:17.092Z,0
2016-09-15T04:26:17.073Z,0
2016-09-15T04:27:17.102Z,0
2016-09-15T04:28:17.033Z,0
2016-09-15T04:29:17.009Z,4
2016-09-15T04:30:16.994Z,4
2016-09-15T04:31:16.975Z,0
2016-09-15T04:32:16.952Z,4
2016-09-15T04:33:16.933Z,4
2016-09-15T04:34:16.909Z,4
2016-09-15T04:35:16.891Z,8
2016-09-15T04:36:16.865Z,8
2016-09-15T04:37:16.861Z,8
2016-09-15T04:38:16.829Z,8
2016-09-15T04:39:16.816Z,8
2016-09-15T04:40:16.788Z,12
2016-09-15T04:41:16.772Z,12
2016-09-15T04:42:16.756Z,16
2016-09-15T04:43:16.727Z,24
2016-09-15T04:44:16.725Z,24
2016-09-15T04:45:16.687Z,32
2016-09-15T04:46:16.967Z,32
2016-09-15T04:47:16.644Z,44
2016-09-15T04:48:16.630Z,48
2016-09-15T04:49:16.615Z,56
2016-09-15T04:50:16.589Z,68
2016-09-15T04:51:16.569Z,76
2016-09-15T04:52:16.562Z,88
2016-09-15T04:53:16.530Z,104
2016-09-15T04:54:16.505Z,116
2016-09-15T04:55:16.491Z,136
2016-09-15T04:56:16.472Z,156
2016-09-15T04:57:16.446Z,172
2016-09-15T04:58:16.430Z,196
2016-09-15T04:59:16.412Z,224
2016-09-15T05:00:16.387Z,248
2016-09-15T05:01:16.368Z,276
2016-09-15T05:02:16.348Z,308
2016-09-15T05:03:16.328Z,340
2016-09-15T05:04:16.304Z,376
2016-09-15T05:05:16.291Z,412
2016-09-15T05:06:16.264Z,448
2016-09-15T05:07:16.250Z,492
2016-09-15T05:08:16.227Z,536
2016-09-15T05:09:16.205Z,580
2016-09-15T05:10:16.188Z,624
2016-09-15T05:11:16.181Z,676
2016-09-15T05:12:16.151Z,724
2016-09-15T05:13:16.124Z,772
2016-09-15T05:14:16.109Z,828
2016-09-15T05:15:16.089Z,884
2016-09-15T05:16:16.066Z,940
2016-09-15T05:17:16.043Z,1000
2016-09-15T05:18:16.026Z,1060
2016-09-15T05:19:16.005Z,1124
2016-09-15T05:20:15.985Z,1192
2016-09-15T05:21:15.963Z,1260
2016-09-15T05:22:15.949Z,1328
2016-09-15T05:23:15.925Z,1404
2016-09-15T05:24:16.580Z,1476
2016-09-15T05:25:15.886Z,1548
2016-09-15T05:26:15.874Z,1624
2016-09-15T05:27:15.840Z,1704
2016-09-15T05:28:15.829Z,1784
2016-09-15T05:29:15.807Z,1864
2016-09-15T05:30:15.789Z,1944
2016-09-15T05:31:15.772Z,2024
2016-09-15T05:32:16.050Z,2112
2016-09-15T05:33:15.723Z,2196
2016-09-15T05:34:15.707Z,2276
2016-09-15T05:35:15.688Z,2364
2016-09-15T05:36:15.661Z,2456
2016-09-15T05:37:15.648Z,2540
2016-09-15T05:38:15.624Z,2628
2016-09-15T05:39:15.604Z,2708
2016-09-15T05:40:15.589Z,2796
2016-09-15T05:41:15.564Z,2880
2016-09-15T05:42:15.540Z,2964
2016-09-15T05:43:15.525Z,3040
2016-09-15T05:44:15.506Z,3116
2016-09-15T05:45:15.489Z,3200
2016-09-15T05:46:15.462Z,3284
2016-09-15T05:47:15.444Z,3368
2016-09-15T05:48:15.432Z,3448
2016-09-15T05:49:15.411Z,3524
2016-09-15T05:50:15.390Z,3600
2016-09-15T05:51:15.369Z,3676
2016-09-15T05:52:15.350Z,3748
2016-09-15T05:53:15.334Z,3816
2016-09-15T05:54:15.310Z,3876
2016-09-15T05:55:15.293Z,3948
2016-09-15T05:56:15.273Z,4024
2016-09-15T05:57:15.247Z,4088
2016-09-15T05:58:15.230Z,4148
2016-09-15T05:59:15.211Z,4208
2016-09-15T06:00:15.192Z,4256
2016-09-15T06:01:15.175Z,4304
2016-09-15T06:02:15.150Z,4344
2016-09-15T06:03:15.133Z,4376
2016-09-15T06:04:15.108Z,4440
2016-09-15T06:05:15.093Z,4516
2016-09-15T06:06:15.081Z,4584
2016-09-15T06:07:15.056Z,4664
2016-09-15T06:08:15.037Z,4744
2016-09-15T06:09:15.023Z,4832
2016-09-15T06:10:14.994Z,4920
2016-09-15T06:11:14.978Z,5012
2016-09-15T06:12:14.963Z,5140
2016-09-15T06:13:14.936Z,5252
2016-09-15T06:14:14.942Z,5388
2016-09-15T06:15:14.905Z,5484
2016-09-15T06:16:14.882Z,5564
2016-09-15T06:17:14.863Z,5632
2016-09-15T06:18:14.846Z,5712
2016-09-15T06:19:14.829Z,5768
2016-09-15T06:20:14.806Z,5812
2016-09-15T06:21:14.788Z,5836
2016-09-15T06:22:14.767Z,5840
2016-09-15T06:23:14.765Z,5824
2016-09-15T06:24:14.730Z,5800
2016-09-15T06:25:14.706Z,5792
2016-09-15T06:26:14.692Z,5780
2016-09-15T06:27:14.671Z,5768
2016-09-15T06:28:14.652Z,5792
2016-09-15T06:29:14.633Z,5836
2016-09-15T06:30:14.615Z,5896
2016-09-15T06:31:14.597Z,5976
2016-09-15T06:32:14.579Z,6064
2016-09-15T06:33:14.560Z,6140
2016-09-15T06:34:14.537Z,6220
2016-09-15T06:35:14.521Z,6288
2016-09-15T06:36:14.505Z,6360
2016-09-15T06:37:14.484Z,6412
2016-09-15T06:38:14.464Z,6472
2016-09-15T06:39:14.449Z,6536
2016-09-15T06:40:14.426Z,6604
2016-09-15T06:41:14.408Z,6668
2016-09-15T06:42:14.389Z,6672
2016-09-15T06:43:14.371Z,6684
2016-09-15T06:44:14.354Z,6724
2016-09-15T06:45:14.339Z,6764
2016-09-15T06:46:14.317Z,6864
2016-09-15T06:47:14.299Z,6888
2016-09-15T06:48:14.291Z,6908
2016-09-15T06:49:14.264Z,6960
2016-09-15T06:50:14.247Z,7012
2016-09-15T06:51:14.227Z,7052
2016-09-15T06:52:14.206Z,7084
2016-09-15T06:53:14.192Z,7112
2016-09-15T06:54:14.170Z,7148
2016-09-15T06:55:14.155Z,7200
2016-09-15T06:56:14.132Z,7240
2016-09-15T06:57:14.120Z,7272
2016-09-15T06:58:14.098Z,7312
2016-09-15T06:59:14.082Z,7384
2016-09-15T07:00:14.061Z,7444
2016-09-15T07:01:14.043Z,7480
2016-09-15T07:02:14.030Z,7536
2016-09-15T07:03:14.013Z,7560
2016-09-15T07:04:13.994Z,7608
2016-09-15T07:05:14.152Z,7660
2016-09-15T07:06:13.950Z,7680
2016-09-15T07:07:13.937Z,7724
2016-09-15T07:08:13.913Z,7748
2016-09-15T07:09:13.900Z,7796
2016-09-15T07:10:13.925Z,7832
2016-09-15T07:11:13.861Z,7868
2016-09-15T07:12:13.845Z,7896
2016-09-15T07:13:13.824Z,7932
2016-09-15T07:14:13.809Z,7972
2016-09-15T07:15:13.789Z,8004
2016-09-15T07:16:13.791Z,8020
2016-09-15T07:17:13.752Z,8028
2016-09-15T07:18:13.742Z,8056
2016-09-15T07:19:13.727Z,8084
2016-09-15T07:20:13.705Z,8112
2016-09-15T07:21:13.682Z,8124
2016-09-15T07:22:13.666Z,8132
2016-09-15T07:23:13.651Z,8152
2016-09-15T07:24:13.636Z,8164
2016-09-15T07:25:13.617Z,8196
2016-09-15T07:26:13.644Z,8240
2016-09-15T07:27:13.581Z,8292
2016-09-15T07:28:13.860Z,8348
2016-09-15T07:29:14.098Z,8432
2016-09-15T07:30:13.527Z,8504
2016-09-15T07:31:14.332Z,8568
2016-09-15T07:32:13.629Z,8616
2016-09-15T07:33:13.475Z,8684
2016-09-15T07:34:13.459Z,8756
2016-09-15T07:35:13.441Z,8832
2016-09-15T07:36:13.424Z,8872
2016-09-15T07:37:13.798Z,8908
2016-09-15T07:38:13.498Z,8956
2016-09-15T07:39:13.371Z,9012
2016-09-15T07:40:13.369Z,9044
2016-09-15T07:41:13.343Z,9056
2016-09-15T07:42:13.326Z,9072
2016-09-15T07:43:13.309Z,9096
2016-09-15T07:44:13.284Z,9156
2016-09-15T07:45:13.271Z,9236
2016-09-15T07:46:13.249Z,9328
2016-09-15T07:47:13.242Z,9408
2016-09-15T07:48:13.236Z,9472
2016-09-15T07:49:13.204Z,9520
2016-09-15T07:50:13.188Z,9536
2016-09-15T07:51:13.168Z,9560
2016-09-15T07:52:13.155Z,9580
2016-09-15T07:53:13.130Z,9588
2016-09-15T07:54:13.119Z,9620
2016-09-15T07:55:13.102Z,9648
2016-09-15T07:56:13.090Z,9660
2016-09-15T07:57:13.070Z,9668
2016-09-15T07:58:13.052Z,9644
2016-09-15T07:59:13.037Z,9640
2016-09-15T08:00:13.020Z,9644
2016-09-15T08:01:13.003Z,9664
2016-09-15T08:02:12.988Z,9704
2016-09-15T08:03:12.967Z,9768
2016-09-15T08:04:13.003Z,9856
2016-09-15T08:05:12.935Z,9912
2016-09-15T08:06:12.935Z,9992
2016-09-15T08:07:13.273Z,10044
2016-09-15T08:08:12.888Z,10068
2016-09-15T08:09:12.872Z,10084
2016-09-15T08:10:12.856Z,10120
2016-09-15T08:11:12.841Z,10144
2016-09-15T08:12:12.828Z,10192
2016-09-15T08:13:12.805Z,10236
2016-09-15T08:14:12.793Z,10264
2016-09-15T08:15:12.771Z,10296
2016-09-15T08:16:12.780Z,10312
2016-09-15T08:17:12.768Z,10312
2016-09-15T08:18:12.728Z,10296
2016-09-15T08:19:12.711Z,10280
2016-09-15T08:20:12.705Z,10280
2016-09-15T08:21:12.677Z,10300
2016-09-15T08:22:12.672Z,10328
2016-09-15T08:23:12.648Z,10360
2016-09-15T08:24:12.641Z,10348
2016-09-15T08:25:12.623Z,10336
2016-09-15T08:26:12.598Z,10344
2016-09-15T08:27:12.583Z,10364
2016-09-15T08:28:12.570Z,10372
2016-09-15T08:29:12.549Z,10372
2016-09-15T08:30:12.538Z,10376
2016-09-15T08:31:12.515Z,10376
2016-09-15T08:32:12.507Z,10388
2016-09-15T08:33:12.491Z,10376
2016-09-15T08:34:12.479Z,10392
2016-09-15T08:35:12.461Z,10428
2016-09-15T08:36:12.448Z,10440
2016-09-15T08:37:12.724Z,10444
2016-09-15T08:38:12.410Z,10440
2016-09-15T08:39:12.397Z,10428
2016-09-15T08:40:12.382Z,10424
2016-09-15T08:41:12.367Z,10424
2016-09-15T08:42:12.349Z,10424
2016-09-15T08:43:12.743Z,10408
2016-09-15T08:44:12.319Z,10408
2016-09-15T08:45:12.312Z,10388
2016-09-15T08:46:12.284Z,10384
2016-09-15T08:47:12.275Z,10388
2016-09-15T08:48:12.253Z,10376
2016-09-15T08:49:12.548Z,10360
2016-09-15T08:50:12.225Z,10364
2016-09-15T08:51:12.208Z,10360
2016-09-15T08:52:12.195Z,10312
2016-09-15T08:53:12.243Z,10292
2016-09-15T08:54:12.165Z,10288
2016-09-15T08:55:12.151Z,10300
2016-09-15T08:56:12.151Z,10320
2016-09-15T08:57:12.118Z,10320
2016-09-15T08:58:12.112Z,10324
2016-09-15T08:59:12.098Z,10344
2016-09-15T09:00:12.081Z,10376
2016-09-15T09:01:12.062Z,10372
2016-09-15T09:02:12.049Z,10356
2016-09-15T09:03:12.326Z,10380
2016-09-15T09:04:12.020Z,10348
2016-09-15T09:05:12.001Z,10344
2016-09-15T09:06:12.005Z,10360
2016-09-15T09:07:11.974Z,10384
2016-09-15T09:08:11.955Z,10400
2016-09-15T09:09:11.945Z,10428
2016-09-15T09:10:11.921Z,10464
2016-09-15T09:11:11.913Z,10468
2016-09-15T09:12:11.899Z,10492
2016-09-15T09:13:11.891Z,10512
2016-09-15T09:14:11.871Z,10528
2016-09-15T09:15:11.857Z,10540
2016-09-15T09:16:12.432Z,10568
2016-09-15T09:17:11.838Z,10600
2016-09-15T09:18:11.808Z,10616
2016-09-15T09:19:11.790Z,10636
2016-09-15T09:20:11.785Z,10652
2016-09-15T09:21:11.764Z,10668
2016-09-15T09:22:11.756Z,10668
2016-09-15T09:23:11.737Z,10636
2016-09-15T09:24:11.725Z,10648
2016-09-15T09:25:12.014Z,10668
2016-09-15T09:26:11.994Z,10644
2016-09-15T09:27:11.979Z,10640
2016-09-15T09:28:11.666Z,10668
2016-09-15T09:29:11.650Z,10692
2016-09-15T09:30:11.638Z,10748
2016-09-15T09:31:12.342Z,10740
2016-09-15T09:32:11.609Z,10700
2016-09-15T09:33:11.604Z,10648
2016-09-15T09:34:11.577Z,10628
2016-09-15T09:35:11.566Z,10632
2016-09-15T09:36:11.550Z,10644
2016-09-15T09:37:11.837Z,10640
2016-09-15T09:38:11.521Z,10612
2016-09-15T09:39:11.505Z,10616
2016-09-15T09:40:11.492Z,10632
2016-09-15T09:41:11.477Z,10660
2016-09-15T09:42:11.472Z,10636
2016-09-15T09:43:11.450Z,10640
2016-09-15T09:44:11.439Z,10628
2016-09-15T09:45:11.421Z,10600
2016-09-15T09:46:11.410Z,10592
2016-09-15T09:47:12.540Z,10588
2016-09-15T09:48:11.382Z,10580
2016-09-15T09:49:11.373Z,10612
2016-09-15T09:50:11.355Z,10608
2016-09-15T09:51:11.342Z,10608
2016-09-15T09:52:11.620Z,10624
2016-09-15T09:53:11.317Z,10624
2016-09-15T09:54:11.302Z,10620
2016-09-15T09:55:11.285Z,10608
2016-09-15T09:56:11.282Z,10588
2016-09-15T09:57:11.260Z,10572
2016-09-15T09:58:11.243Z,10564
2016-09-15T09:59:11.253Z,10548
2016-09-15T10:00:11.220Z,10544
2016-09-15T10:01:11.202Z,10528
2016-09-15T10:02:11.262Z,10508
2016-09-15T10:03:11.267Z,10524
2016-09-15T10:04:11.521Z,10524
2016-09-15T10:05:11.225Z,10500
2016-09-15T10:06:11.233Z,10504
2016-09-15T10:07:11.147Z,10472
2016-09-15T10:08:11.166Z,10472
2016-09-15T10:09:11.136Z,10508
2016-09-15T10:10:11.080Z,10536
2016-09-15T10:11:11.066Z,10564
2016-09-15T10:12:11.159Z,10576
2016-09-15T10:13:11.064Z,10620
2016-09-15T10:14:11.026Z,10616
2016-09-15T10:15:11.521Z,10580
2016-09-15T10:16:11.111Z,10552
2016-09-15T10:17:10.989Z,10556
2016-09-15T10:18:11.354Z,10576
2016-09-15T10:19:11.402Z,10604
2016-09-15T10:20:11.317Z,10652
2016-09-15T10:21:10.970Z,10688
2016-09-15T10:22:10.970Z,10708
2016-09-15T10:23:10.939Z,10692
2016-09-15T10:24:11.265Z,10708
2016-09-15T10:25:10.915Z,10728
2016-09-15T10:26:10.934Z,10748
2016-09-15T10:27:10.934Z,10748
2016-09-15T10:28:10.892Z,10752
2016-09-15T10:29:10.857Z,10736
2016-09-15T10:30:12.032Z,10732
2016-09-15T10:31:10.887Z,10744
2016-09-15T10:32:10.827Z,10768
2016-09-15T10:33:11.190Z,10784
2016-09-15T10:34:10.799Z,10756
2016-09-15T10:35:10.756Z,10752
2016-09-15T10:36:11.209Z,10712
2016-09-15T10:37:10.733Z,10728
2016-09-15T10:38:10.711Z,10756
2016-09-15T10:39:10.705Z,10756
2016-09-15T10:40:10.689Z,10796
2016-09-15T10:41:10.671Z,10804
2016-09-15T10:42:10.666Z,10820
2016-09-15T10:43:10.646Z,10856
2016-09-15T10:44:10.639Z,10888
2016-09-15T10:45:10.622Z,10884
2016-09-15T10:46:10.613Z,10876
2016-09-15T10:47:10.602Z,10876
2016-09-15T10:48:10.628Z,10908
2016-09-15T10:49:10.575Z,10896
2016-09-15T10:50:10.712Z,10920
2016-09-15T10:51:10.555Z,10936
2016-09-15T10:52:10.534Z,10904
2016-09-15T10:53:10.527Z,10892
2016-09-15T10:54:10.516Z,10928
2016-09-15T10:55:10.502Z,10988
2016-09-15T10:56:10.488Z,10964
2016-09-15T10:57:10.476Z,10976
2016-09-15T10:58:10.522Z,10976
2016-09-15T10:59:10.455Z,10936
2016-09-15T11:00:10.438Z,10892
2016-09-15T11:01:10.430Z,10844
2016-09-15T11:02:10.419Z,10924
2016-09-15T11:03:10.401Z,11008
2016-09-15T11:04:10.613Z,11104
2016-09-15T11:05:10.409Z,11184
2016-09-15T11:06:10.367Z,11280
2016-09-15T11:07:10.353Z,11328
2016-09-15T11:08:10.341Z,11368
2016-09-15T11:09:10.332Z,11372
2016-09-15T11:10:10.315Z,11384
2016-09-15T11:11:10.302Z,11324
2016-09-15T11:12:10.289Z,11252
2016-09-15T11:13:10.283Z,11216
2016-09-15T11:14:10.264Z,11220
2016-09-15T11:15:10.257Z,11208
2016-09-15T11:16:10.244Z,11192
2016-09-15T11:17:10.231Z,11184
2016-09-15T11:18:10.223Z,11208
2016-09-15T11:19:10.403Z,11212
2016-09-15T11:20:10.197Z,11200
2016-09-15T11:21:10.185Z,11196
2016-09-15T11:22:10.176Z,11192
2016-09-15T11:23:10.159Z,11216
2016-09-15T11:24:10.152Z,11216
2016-09-15T11:25:10.135Z,11284
2016-09-15T11:26:10.130Z,11340
2016-09-15T11:27:10.118Z,11068
2016-09-15T11:28:10.105Z,11048
2016-09-15T11:29:10.095Z,11180
2016-09-15T11:30:10.084Z,11404
2016-09-15T11:31:10.073Z,11468
2016-09-15T11:32:10.061Z,11500
2016-09-15T11:33:10.048Z,11528
2016-09-15T11:34:10.035Z,11588
2016-09-15T11:35:10.088Z,11648
2016-09-15T11:36:10.318Z,11712
2016-09-15T11:37:09.999Z,11744
2016-09-15T11:38:09.993Z,11716
2016-09-15T11:39:09.977Z,11668
2016-09-15T11:40:09.965Z,11620
2016-09-15T11:41:10.250Z,11552
2016-09-15T11:42:09.944Z,11508
2016-09-15T11:43:09.931Z,11504
2016-09-15T11:44:10.219Z,11464
2016-09-15T11:45:09.905Z,11432
2016-09-15T11:46:09.901Z,11372
2016-09-15T11:47:09.880Z,11300
2016-09-15T11:48:09.878Z,11264
2016-09-15T11:49:09.858Z,11268
2016-09-15T11:50:09.866Z,11236
2016-09-15T11:51:09.845Z,11200
2016-09-15T11:52:09.831Z,11136
2016-09-15T11:53:09.818Z,11168
2016-09-15T11:54:09.809Z,11196
2016-09-15T11:55:09.798Z,11240
2016-09-15T11:56:09.782Z,11236
2016-09-15T11:57:09.773Z,11224
2016-09-15T11:58:09.762Z,11204
2016-09-15T11:59:09.754Z,11172
2016-09-15T12:00:09.794Z,11132
2016-09-15T12:01:09.725Z,11084
2016-09-15T12:02:09.713Z,11064
2016-09-15T12:03:10.007Z,11076
2016-09-15T12:04:09.691Z,11084
2016-09-15T12:05:09.740Z,11072
2016-09-15T12:06:09.669Z,11084
2016-09-15T12:07:09.656Z,11076
2016-09-15T12:08:09.649Z,11056
2016-09-15T12:09:09.634Z,11076
2016-09-15T12:10:09.630Z,11076
2016-09-15T12:11:09.611Z,11048
2016-09-15T12:12:09.602Z,11024
2016-09-15T12:13:09.585Z,10996
2016-09-15T12:14:09.577Z,11000
2016-09-15T12:15:09.568Z,11004
2016-09-15T12:16:09.559Z,11008
2016-09-15T12:17:09.546Z,11008
2016-09-15T12:18:09.539Z,11024
2016-09-15T12:19:09.522Z,11024
2016-09-15T12:20:09.514Z,11040
2016-09-15T12:21:09.503Z,11004
2016-09-15T12:22:09.491Z,10976
2016-09-15T12:23:09.479Z,10944
2016-09-15T12:24:09.473Z,10960
2016-09-15T12:25:09.451Z,11004
2016-09-15T12:26:09.831Z,11064
2016-09-15T12:27:09.450Z,10996
2016-09-15T12:28:09.432Z,10900
2016-09-15T12:29:09.409Z,10936
2016-09-15T12:30:09.825Z,10964
2016-09-15T12:31:09.385Z,10892
2016-09-15T12:32:09.386Z,10828
2016-09-15T12:33:09.472Z,10748
2016-09-15T12:34:09.412Z,10692
2016-09-15T12:35:09.396Z,10680
2016-09-15T12:36:09.437Z,10700
2016-09-15T12:37:09.325Z,10728
2016-09-15T12:38:09.366Z,10780
2016-09-15T12:39:09.806Z,10808
2016-09-15T12:40:09.291Z,10824
2016-09-15T12:41:09.341Z,10872
2016-09-15T12:42:09.302Z,10816
2016-09-15T12:43:09.664Z,10832
2016-09-15T12:44:09.591Z,10836
2016-09-15T12:45:09.274Z,10876
2016-09-15T12:46:09.222Z,10920
2016-09-15T12:47:09.577Z,11040
2016-09-15T12:48:09.196Z,11120
2016-09-15T12:49:09.705Z,11004
2016-09-15T12:50:09.235Z,10972
2016-09-15T12:51:09.250Z,10964
2016-09-15T12:52:09.187Z,10844
2016-09-15T12:53:09.219Z,10780
2016-09-15T12:54:09.250Z,10780
2016-09-15T12:55:09.225Z,10816
2016-09-15T12:56:09.660Z,10844
2016-09-15T12:57:09.105Z,10928
2016-09-15T12:58:09.229Z,11004
2016-09-15T12:59:09.095Z,11092
2016-09-15T13:00:09.078Z,11172
2016-09-15T13:01:09.064Z,11236
2016-09-15T13:02:09.058Z,11284
2016-09-15T13:03:09.081Z,11324
2016-09-15T13:04:09.417Z,11320
2016-09-15T13:05:09.089Z,11308
2016-09-15T13:06:09.047Z,11308
2016-09-15T13:07:09.007Z,11320
2016-09-15T13:08:09.372Z,11272
2016-09-15T13:09:08.982Z,11156
2016-09-15T13:10:08.988Z,10972
2016-09-15T13:11:08.970Z,10940
2016-09-15T13:12:08.948Z,11032
2016-09-15T13:13:08.944Z,11136
2016-09-15T13:14:08.943Z,11176
2016-09-15T13:15:08.949Z,11052
2016-09-15T13:16:08.907Z,10932
2016-09-15T13:17:08.931Z,10904
2016-09-15T13:18:08.889Z,11036
2016-09-15T13:19:08.893Z,11216
2016-09-15T13:20:08.876Z,11352
2016-09-15T13:21:08.900Z,11436
2016-09-15T13:22:08.892Z,11516
2016-09-15T13:23:08.908Z,11564
2016-09-15T13:24:08.877Z,11632
2016-09-15T13:25:08.938Z,11672
2016-09-15T13:26:08.801Z,11660
2016-09-15T13:27:08.872Z,11656
2016-09-15T13:28:08.802Z,11652
2016-09-15T13:29:08.776Z,11644
2016-09-15T13:30:08.811Z,11624
2016-09-15T13:31:08.768Z,11580
2016-09-15T13:32:09.102Z,11508
2016-09-15T13:33:08.783Z,11488
2016-09-15T13:34:09.096Z,11488
2016-09-15T13:35:09.138Z,11484
2016-09-15T13:36:08.744Z,11452
2016-09-15T13:37:09.059Z,11472